Portada
METAR-TAF:

METAR-TAF

Aeroports :

Nimes, França

latitud: 43-45N, longitud: 004-25E, altitud: 94 m

Observació

L'informe es va fer fa 22 minuts, a les 12:00 UTC
Vent 6 kt del Nord, variant entre Nord/Nord-Oest i Nord-Est
Temperatura 6°C
Humitat 56%
Pressió 1020 hPa
Visibilitat 10 km o més
sense núvols per sota de 1500 mi sense presència de cumulonimbus.

METAR: LFTW 151200Z AUTO 01006KT 330V050 CAVOK 06/M02 Q1020 NOSIG

Hora: 13:22 (12:22 UTC)

Pronòstic

L'informe es va fer fa 4 hores i 22 minuts, a les 08:00 UTC
Pronòstic vàlid del 15 a les 09 UTC al 16 a les 09 UTC
Vent 4 kt amb direcció variable
Visibilitat 10 km o més
sense núvols per sota de 1500 mi sense presència de cumulonimbus.
Evolucionant progressivament
l' 15 a les 13 UTC al 15 a les 15 UTC
Cel ennuvolat a una alçada de 2000 ft
Temporalment
l' 15 a les 18 UTC al 16 a les 09 UTC
Cel cobert a una alçada de 1000 ft
pluja

TAF: LFTW 150800Z 1509/1609 VRB04KT CAVOK BECMG 1513/1515 BKN020 TEMPO 1518/1609 RA OVC010

Observacions i pronòstics meteorològics de més de 4000 aeroports (METAR i TAF).

Les estacions disponibles són els punts grocs i vermells al mapa.

Posi el ratolí al punt desitjat per veure el nom de l'estació.

Feu clic per veure les observacions i els pronòstics meteorològics.

Per canviar el mapa: feu clic els botons verds amb una creu de color negre per apropar; al botó verd amb un guió per allunyar la imatge; o en les fletxes verdes per a mapes adjacents.


METAR-TAF: